sensor_id;sensor_type;location;lat;lon;timestamp;pressure;altitude;pressure_sealevel;temperature;humidity
40372;BME280;28564;53.346;-6.554;2022-07-19T00:00:11;100460.16;;;27.90;33.04
40372;BME280;28564;53.346;-6.554;2022-07-19T00:02:39;100459.46;;;27.72;33.24
40372;BME280;28564;53.346;-6.554;2022-07-19T00:05:08;100434.15;;;27.53;33.41
40372;BME280;28564;53.346;-6.554;2022-07-19T00:07:35;100443.19;;;27.53;33.44
40372;BME280;28564;53.346;-6.554;2022-07-19T00:10:05;100453.99;;;27.54;33.50
40372;BME280;28564;53.346;-6.554;2022-07-19T00:12:33;100450.41;;;27.56;33.49
40372;BME280;28564;53.346;-6.554;2022-07-19T00:15:00;100442.90;;;27.52;33.49
40372;BME280;28564;53.346;-6.554;2022-07-19T00:17:27;100437.38;;;27.39;33.55
40372;BME280;28564;53.346;-6.554;2022-07-19T00:19:55;100429.61;;;27.32;33.56
40372;BME280;28564;53.346;-6.554;2022-07-19T00:22:22;100422.90;;;27.63;33.52
40372;BME280;28564;53.346;-6.554;2022-07-19T00:24:49;100423.57;;;27.68;33.51
40372;BME280;28564;53.346;-6.554;2022-07-19T00:27:17;100408.74;;;27.46;33.49
40372;BME280;28564;53.346;-6.554;2022-07-19T00:29:44;100413.84;;;27.49;33.45
40372;BME280;28564;53.346;-6.554;2022-07-19T00:32:10;100416.31;;;27.52;33.42
40372;BME280;28564;53.346;-6.554;2022-07-19T00:34:37;100421.53;;;27.54;33.41
40372;BME280;28564;53.346;-6.554;2022-07-19T00:37:04;100415.49;;;27.54;33.46
40372;BME280;28564;53.346;-6.554;2022-07-19T00:39:31;100415.16;;;27.51;33.54
40372;BME280;28564;53.346;-6.554;2022-07-19T00:41:58;100423.99;;;27.48;33.66
40372;BME280;28564;53.346;-6.554;2022-07-19T00:44:25;100420.95;;;27.41;33.75
40372;BME280;28564;53.346;-6.554;2022-07-19T00:46:52;100418.50;;;27.33;33.81
40372;BME280;28564;53.346;-6.554;2022-07-19T00:49:20;100423.34;;;27.26;33.94
40372;BME280;28564;53.346;-6.554;2022-07-19T00:51:50;100416.58;;;27.19;34.03
40372;BME280;28564;53.346;-6.554;2022-07-19T00:54:18;100415.66;;;27.38;34.17
40372;BME280;28564;53.346;-6.554;2022-07-19T00:56:48;100410.30;;;27.05;34.29
40372;BME280;28564;53.346;-6.554;2022-07-19T00:59:18;100404.11;;;27.30;34.33
40372;BME280;28564;53.346;-6.554;2022-07-19T01:01:46;100400.51;;;27.29;34.45
40372;BME280;28564;53.346;-6.554;2022-07-19T01:04:13;100396.90;;;27.49;34.53
40372;BME280;28564;53.346;-6.554;2022-07-19T01:06:41;100396.68;;;26.98;34.58
40372;BME280;28564;53.346;-6.554;2022-07-19T01:09:09;100397.58;;;27.26;34.63
40372;BME280;28564;53.346;-6.554;2022-07-19T01:11:36;100402.33;;;27.25;34.71
40372;BME280;28564;53.346;-6.554;2022-07-19T01:14:03;100404.76;;;27.22;34.98
40372;BME280;28564;53.346;-6.554;2022-07-19T01:16:31;100399.18;;;27.22;34.99
40372;BME280;28564;53.346;-6.554;2022-07-19T01:18:58;100396.77;;;27.22;34.96
40372;BME280;28564;53.346;-6.554;2022-07-19T01:21:25;100393.02;;;27.26;34.95
40372;BME280;28564;53.346;-6.554;2022-07-19T01:23:53;100387.92;;;27.27;34.95
40372;BME280;28564;53.346;-6.554;2022-07-19T01:26:20;100384.35;;;27.48;35.07
40372;BME280;28564;53.346;-6.554;2022-07-19T01:28:47;100377.61;;;27.00;34.99
40372;BME280;28564;53.346;-6.554;2022-07-19T01:31:14;100372.10;;;27.24;35.07
40372;BME280;28564;53.346;-6.554;2022-07-19T01:33:45;100373.30;;;27.21;35.14
40372;BME280;28564;53.346;-6.554;2022-07-19T01:36:13;100367.62;;;27.19;35.18
40372;BME280;28564;53.346;-6.554;2022-07-19T01:38:40;100366.56;;;27.15;35.29
40372;BME280;28564;53.346;-6.554;2022-07-19T01:41:07;100373.47;;;27.10;35.37
40372;BME280;28564;53.346;-6.554;2022-07-19T01:43:35;100378.02;;;27.10;35.35
40372;BME280;28564;53.346;-6.554;2022-07-19T01:46:03;100378.69;;;26.85;35.32
40372;BME280;28564;53.346;-6.554;2022-07-19T01:48:30;100383.58;;;27.21;35.48
40372;BME280;28564;53.346;-6.554;2022-07-19T01:50:58;100374.44;;;27.07;35.60
40372;BME280;28564;53.346;-6.554;2022-07-19T01:53:26;100375.47;;;26.50;35.73
40372;BME280;28564;53.346;-6.554;2022-07-19T01:55:53;100379.23;;;26.89;35.90
40372;BME280;28564;53.346;-6.554;2022-07-19T01:58:21;100378.41;;;26.62;36.00
40372;BME280;28564;53.346;-6.554;2022-07-19T02:00:49;100382.63;;;26.63;35.99
40372;BME280;28564;53.346;-6.554;2022-07-19T02:03:17;100379.60;;;26.63;35.99
40372;BME280;28564;53.346;-6.554;2022-07-19T02:05:44;100379.83;;;26.87;35.98
40372;BME280;28564;53.346;-6.554;2022-07-19T02:08:11;100375.25;;;26.91;35.92
40372;BME280;28564;53.346;-6.554;2022-07-19T02:10:38;100376.66;;;26.93;35.88
40372;BME280;28564;53.346;-6.554;2022-07-19T02:13:05;100377.52;;;26.90;35.87
40372;BME280;28564;53.346;-6.554;2022-07-19T02:15:32;100373.45;;;26.89;35.84
40372;BME280;28564;53.346;-6.554;2022-07-19T02:17:59;100366.14;;;26.84;35.88
40372;BME280;28564;53.346;-6.554;2022-07-19T02:20:26;100365.81;;;26.56;35.96
40372;BME280;28564;53.346;-6.554;2022-07-19T02:22:54;100369.57;;;26.49;36.00
40372;BME280;28564;53.346;-6.554;2022-07-19T02:25:21;100364.86;;;26.60;36.09
40372;BME280;28564;53.346;-6.554;2022-07-19T02:27:49;100359.04;;;26.49;36.24
40372;BME280;28564;53.346;-6.554;2022-07-19T02:30:16;100351.87;;;26.41;36.33
40372;BME280;28564;53.346;-6.554;2022-07-19T02:32:43;100350.22;;;26.32;36.41
40372;BME280;28564;53.346;-6.554;2022-07-19T02:35:11;100351.07;;;26.24;36.52
40372;BME280;28564;53.346;-6.554;2022-07-19T02:37:40;100343.88;;;26.41;36.65
40372;BME280;28564;53.346;-6.554;2022-07-19T02:40:08;100346.66;;;26.14;36.72
40372;BME280;28564;53.346;-6.554;2022-07-19T02:42:36;100341.90;;;26.33;36.81
40372;BME280;28564;53.346;-6.554;2022-07-19T02:45:04;100338.32;;;26.08;36.85
40372;BME280;28564;53.346;-6.554;2022-07-19T02:47:31;100336.87;;;26.05;36.89
40372;BME280;28564;53.346;-6.554;2022-07-19T02:49:58;100330.91;;;26.22;36.93
40372;BME280;28564;53.346;-6.554;2022-07-19T02:52:25;100321.94;;;26.14;37.02
40372;BME280;28564;53.346;-6.554;2022-07-19T02:54:55;100323.84;;;25.81;37.20
40372;BME280;28564;53.346;-6.554;2022-07-19T02:57:22;100322.36;;;25.91;37.35
40372;BME280;28564;53.346;-6.554;2022-07-19T02:59:49;100317.82;;;25.83;37.48
40372;BME280;28564;53.346;-6.554;2022-07-19T03:02:17;100315.47;;;26.06;37.57
40372;BME280;28564;53.346;-6.554;2022-07-19T03:04:43;100317.32;;;26.02;37.64
40372;BME280;28564;53.346;-6.554;2022-07-19T03:07:10;100316.18;;;25.71;37.72
40372;BME280;28564;53.346;-6.554;2022-07-19T03:09:37;100303.60;;;25.66;37.76
40372;BME280;28564;53.346;-6.554;2022-07-19T03:12:05;100303.60;;;25.62;37.84
40372;BME280;28564;53.346;-6.554;2022-07-19T03:14:32;100298.57;;;25.60;37.90
40372;BME280;28564;53.346;-6.554;2022-07-19T03:17:00;100295.05;;;25.88;37.96
40372;BME280;28564;53.346;-6.554;2022-07-19T03:19:27;100289.24;;;25.90;37.94
40372;BME280;28564;53.346;-6.554;2022-07-19T03:21:54;100289.29;;;25.65;37.91
40372;BME280;28564;53.346;-6.554;2022-07-19T03:24:22;100282.90;;;25.68;37.88
40372;BME280;28564;53.346;-6.554;2022-07-19T03:26:55;100277.75;;;25.96;37.86
40372;BME280;28564;53.346;-6.554;2022-07-19T03:29:23;100276.92;;;25.61;37.87
40372;BME280;28564;53.346;-6.554;2022-07-19T03:31:50;100279.15;;;25.82;37.88
40372;BME280;28564;53.346;-6.554;2022-07-19T03:34:18;100278.93;;;25.80;37.90
40372;BME280;28564;53.346;-6.554;2022-07-19T03:36:45;100283.39;;;25.79;37.88
40372;BME280;28564;53.346;-6.554;2022-07-19T03:39:13;100279.11;;;25.73;37.92
40372;BME280;28564;53.346;-6.554;2022-07-19T03:41:40;100270.83;;;25.60;37.97
40372;BME280;28564;53.346;-6.554;2022-07-19T03:44:07;100269.51;;;25.49;38.11
40372;BME280;28564;53.346;-6.554;2022-07-19T03:46:35;100258.35;;;25.30;38.48
40372;BME280;28564;53.346;-6.554;2022-07-19T03:49:02;100250.85;;;25.13;38.78
40372;BME280;28564;53.346;-6.554;2022-07-19T03:51:29;100247.14;;;25.06;38.84
40372;BME280;28564;53.346;-6.554;2022-07-19T03:53:55;100243.47;;;25.02;38.88
40372;BME280;28564;53.346;-6.554;2022-07-19T03:56:23;100242.62;;;24.95;39.00
40372;BME280;28564;53.346;-6.554;2022-07-19T03:58:50;100238.51;;;24.88;39.06
40372;BME280;28564;53.346;-6.554;2022-07-19T04:01:17;100231.73;;;24.86;39.08
40372;BME280;28564;53.346;-6.554;2022-07-19T04:03:45;100228.38;;;25.29;39.08
40372;BME280;28564;53.346;-6.554;2022-07-19T04:06:11;100228.80;;;25.05;39.07
40372;BME280;28564;53.346;-6.554;2022-07-19T04:08:38;100225.52;;;24.82;39.05
40372;BME280;28564;53.346;-6.554;2022-07-19T04:11:05;100227.02;;;25.06;39.03
40372;BME280;28564;53.346;-6.554;2022-07-19T04:13:34;100225.49;;;24.85;39.00
40372;BME280;28564;53.346;-6.554;2022-07-19T04:16:02;100225.57;;;25.15;38.83
40372;BME280;28564;53.346;-6.554;2022-07-19T04:18:29;100219.21;;;24.92;38.77
40372;BME280;28564;53.346;-6.554;2022-07-19T04:20:58;100217.14;;;24.87;38.85
40372;BME280;28564;53.346;-6.554;2022-07-19T04:23:26;100221.13;;;25.04;38.87
40372;BME280;28564;53.346;-6.554;2022-07-19T04:25:53;100219.67;;;24.78;38.91
40372;BME280;28564;53.346;-6.554;2022-07-19T04:28:20;100211.52;;;24.99;38.95
40372;BME280;28564;53.346;-6.554;2022-07-19T04:30:47;100213.40;;;24.70;38.98
40372;BME280;28564;53.346;-6.554;2022-07-19T04:33:16;100218.60;;;24.64;38.96
40372;BME280;28564;53.346;-6.554;2022-07-19T04:35:44;100219.04;;;24.81;39.00
40372;BME280;28564;53.346;-6.554;2022-07-19T04:38:12;100209.43;;;24.74;39.02
40372;BME280;28564;53.346;-6.554;2022-07-19T04:40:39;100202.96;;;24.70;39.07
40372;BME280;28564;53.346;-6.554;2022-07-19T04:43:07;100204.07;;;24.90;39.14
40372;BME280;28564;53.346;-6.554;2022-07-19T04:45:34;100209.56;;;24.45;39.15
40372;BME280;28564;53.346;-6.554;2022-07-19T04:48:02;100206.42;;;24.68;39.16
40372;BME280;28564;53.346;-6.554;2022-07-19T04:50:30;100201.49;;;24.89;39.20
40372;BME280;28564;53.346;-6.554;2022-07-19T04:52:57;100194.93;;;24.44;39.27
40372;BME280;28564;53.346;-6.554;2022-07-19T04:55:24;100184.78;;;24.90;39.32
40372;BME280;28564;53.346;-6.554;2022-07-19T04:57:51;100182.75;;;24.93;39.33
40372;BME280;28564;53.346;-6.554;2022-07-19T05:00:18;100183.85;;;24.77;39.33
40372;BME280;28564;53.346;-6.554;2022-07-19T05:02:52;100180.57;;;24.82;39.33
40372;BME280;28564;53.346;-6.554;2022-07-19T05:05:20;100182.39;;;24.67;39.31
40372;BME280;28564;53.346;-6.554;2022-07-19T05:07:48;100187.92;;;25.17;39.32
40372;BME280;28564;53.346;-6.554;2022-07-19T05:10:20;100189.76;;;24.80;39.30
40372;BME280;28564;53.346;-6.554;2022-07-19T05:12:47;100191.08;;;25.30;39.28
40372;BME280;28564;53.346;-6.554;2022-07-19T05:15:14;100189.17;;;24.89;39.26
40372;BME280;28564;53.346;-6.554;2022-07-19T05:17:41;100192.39;;;25.14;39.18
40372;BME280;28564;53.346;-6.554;2022-07-19T05:20:09;100194.71;;;25.12;39.06
40372;BME280;28564;53.346;-6.554;2022-07-19T05:22:36;100195.63;;;25.01;38.99
40372;BME280;28564;53.346;-6.554;2022-07-19T05:25:04;100203.03;;;24.73;39.09
40372;BME280;28564;53.346;-6.554;2022-07-19T05:27:31;100205.77;;;25.10;39.12
40372;BME280;28564;53.346;-6.554;2022-07-19T05:29:59;100202.86;;;24.52;39.16
40372;BME280;28564;53.346;-6.554;2022-07-19T05:32:26;100194.52;;;24.43;39.25
40372;BME280;28564;53.346;-6.554;2022-07-19T05:34:53;100198.32;;;24.38;39.35
40372;BME280;28564;53.346;-6.554;2022-07-19T05:37:20;100210.09;;;24.38;39.38
40372;BME280;28564;53.346;-6.554;2022-07-19T05:39:47;100217.68;;;24.92;39.32
40372;BME280;28564;53.346;-6.554;2022-07-19T05:42:14;100212.58;;;24.79;39.25
40372;BME280;28564;53.346;-6.554;2022-07-19T05:44:41;100204.98;;;24.35;39.31
40372;BME280;28564;53.346;-6.554;2022-07-19T05:47:09;100195.32;;;24.73;39.30
40372;BME280;28564;53.346;-6.554;2022-07-19T05:49:36;100191.57;;;25.04;39.31
40372;BME280;28564;53.346;-6.554;2022-07-19T05:52:04;100193.47;;;25.11;39.36
40372;BME280;28564;53.346;-6.554;2022-07-19T05:54:31;100183.32;;;24.98;39.39
40372;BME280;28564;53.346;-6.554;2022-07-19T05:56:58;100182.76;;;25.11;39.36
40372;BME280;28564;53.346;-6.554;2022-07-19T05:59:25;100186.07;;;25.46;39.36
40372;BME280;28564;53.346;-6.554;2022-07-19T06:01:53;100181.63;;;25.33;39.30
40372;BME280;28564;53.346;-6.554;2022-07-19T06:04:20;100180.68;;;25.22;39.23
40372;BME280;28564;53.346;-6.554;2022-07-19T06:06:47;100178.93;;;25.66;39.07
40372;BME280;28564;53.346;-6.554;2022-07-19T06:09:14;100177.99;;;25.55;38.98
40372;BME280;28564;53.346;-6.554;2022-07-19T06:11:42;100182.39;;;25.95;38.80
40372;BME280;28564;53.346;-6.554;2022-07-19T06:14:10;100185.84;;;25.79;38.65
40372;BME280;28564;53.346;-6.554;2022-07-19T06:16:38;100190.63;;;25.87;38.52
40372;BME280;28564;53.346;-6.554;2022-07-19T06:19:06;100196.07;;;26.22;38.41
40372;BME280;28564;53.346;-6.554;2022-07-19T06:21:34;100203.85;;;26.30;38.33
40372;BME280;28564;53.346;-6.554;2022-07-19T06:24:01;100212.11;;;25.63;38.21
40372;BME280;28564;53.346;-6.554;2022-07-19T06:26:28;100208.92;;;25.85;38.17
40372;BME280;28564;53.346;-6.554;2022-07-19T06:28:55;100203.14;;;26.02;38.21
40372;BME280;28564;53.346;-6.554;2022-07-19T06:31:23;100197.79;;;26.03;38.26
40372;BME280;28564;53.346;-6.554;2022-07-19T06:33:51;100199.30;;;26.07;38.31
40372;BME280;28564;53.346;-6.554;2022-07-19T06:36:19;100200.01;;;25.91;38.35
40372;BME280;28564;53.346;-6.554;2022-07-19T06:38:47;100198.83;;;26.24;38.36
40372;BME280;28564;53.346;-6.554;2022-07-19T06:41:16;100194.27;;;26.35;38.37
40372;BME280;28564;53.346;-6.554;2022-07-19T06:43:43;100192.93;;;26.16;38.50
40372;BME280;28564;53.346;-6.554;2022-07-19T06:46:11;100189.51;;;26.19;38.49
40372;BME280;28564;53.346;-6.554;2022-07-19T06:48:38;100183.38;;;26.28;38.49
40372;BME280;28564;53.346;-6.554;2022-07-19T06:51:07;100185.64;;;26.40;38.44
40372;BME280;28564;53.346;-6.554;2022-07-19T06:53:35;100190.28;;;26.46;38.48
40372;BME280;28564;53.346;-6.554;2022-07-19T06:56:03;100190.20;;;26.27;38.64
40372;BME280;28564;53.346;-6.554;2022-07-19T06:58:30;100185.30;;;26.54;38.73
40372;BME280;28564;53.346;-6.554;2022-07-19T07:00:57;100181.41;;;26.47;38.71
40372;BME280;28564;53.346;-6.554;2022-07-19T07:03:25;100177.33;;;26.84;38.53
40372;BME280;28564;53.346;-6.554;2022-07-19T07:05:53;100180.54;;;26.55;38.27
40372;BME280;28564;53.346;-6.554;2022-07-19T07:08:20;100179.74;;;27.06;37.92
40372;BME280;28564;53.346;-6.554;2022-07-19T07:10:47;100177.51;;;27.06;37.93
40372;BME280;28564;53.346;-6.554;2022-07-19T07:13:14;100183.96;;;27.07;37.90
40372;BME280;28564;53.346;-6.554;2022-07-19T07:15:42;100200.31;;;26.50;37.96
40372;BME280;28564;53.346;-6.554;2022-07-19T07:18:09;100204.25;;;26.51;38.06
40372;BME280;28564;53.346;-6.554;2022-07-19T07:20:35;100197.71;;;26.65;38.02
40372;BME280;28564;53.346;-6.554;2022-07-19T07:23:03;100193.37;;;26.98;38.10
40372;BME280;28564;53.346;-6.554;2022-07-19T07:25:35;100184.51;;;27.19;38.00
40372;BME280;28564;53.346;-6.554;2022-07-19T07:28:03;100179.94;;;26.77;38.05
40372;BME280;28564;53.346;-6.554;2022-07-19T07:30:30;100178.08;;;27.25;37.96
40372;BME280;28564;53.346;-6.554;2022-07-19T07:32:57;100176.46;;;27.22;37.77
40372;BME280;28564;53.346;-6.554;2022-07-19T07:35:24;100174.77;;;27.38;37.53
40372;BME280;28564;53.346;-6.554;2022-07-19T07:37:52;100167.75;;;27.51;37.35
40372;BME280;28564;53.346;-6.554;2022-07-19T07:40:19;100161.72;;;27.42;37.26
40372;BME280;28564;53.346;-6.554;2022-07-19T07:42:46;100156.27;;;27.79;37.11
40372;BME280;28564;53.346;-6.554;2022-07-19T07:45:13;100156.33;;;27.96;36.88
40372;BME280;28564;53.346;-6.554;2022-07-19T07:47:41;100158.64;;;28.19;36.65
40372;BME280;28564;53.346;-6.554;2022-07-19T07:50:09;100154.77;;;28.24;36.35
40372;BME280;28564;53.346;-6.554;2022-07-19T07:52:36;100151.76;;;28.54;36.10
40372;BME280;28564;53.346;-6.554;2022-07-19T07:55:04;100142.87;;;28.78;35.86
40372;BME280;28564;53.346;-6.554;2022-07-19T07:57:31;100141.83;;;28.71;35.62
40372;BME280;28564;53.346;-6.554;2022-07-19T07:59:58;100144.68;;;28.65;35.29
40372;BME280;28564;53.346;-6.554;2022-07-19T08:02:25;100157.23;;;28.99;34.86
40372;BME280;28564;53.346;-6.554;2022-07-19T08:04:52;100158.82;;;28.96;34.69
40372;BME280;28564;53.346;-6.554;2022-07-19T08:07:20;100159.22;;;28.90;34.45
40372;BME280;28564;53.346;-6.554;2022-07-19T08:09:47;100159.69;;;28.84;34.56
40372;BME280;28564;53.346;-6.554;2022-07-19T08:12:14;100158.08;;;28.84;34.71
40372;BME280;28564;53.346;-6.554;2022-07-19T08:14:41;100154.46;;;28.94;34.49
40372;BME280;28564;53.346;-6.554;2022-07-19T08:17:09;100154.91;;;29.00;34.36
40372;BME280;28564;53.346;-6.554;2022-07-19T08:19:36;100156.37;;;28.87;34.32
40372;BME280;28564;53.346;-6.554;2022-07-19T08:22:03;100163.69;;;28.95;34.50
40372;BME280;28564;53.346;-6.554;2022-07-19T08:24:31;100162.07;;;29.26;34.64
40372;BME280;28564;53.346;-6.554;2022-07-19T08:26:58;100161.39;;;29.39;34.70
40372;BME280;28564;53.346;-6.554;2022-07-19T08:29:31;100166.95;;;29.36;34.69
40372;BME280;28564;53.346;-6.554;2022-07-19T08:31:57;100171.95;;;29.53;34.54
40372;BME280;28564;53.346;-6.554;2022-07-19T08:34:25;100174.04;;;29.79;34.12
40372;BME280;28564;53.346;-6.554;2022-07-19T08:36:52;100176.52;;;29.38;34.08
40372;BME280;28564;53.346;-6.554;2022-07-19T08:39:19;100179.12;;;29.43;33.67
40372;BME280;28564;53.346;-6.554;2022-07-19T08:41:46;100178.99;;;29.44;33.11
40372;BME280;28564;53.346;-6.554;2022-07-19T08:44:14;100181.72;;;29.39;32.71
40372;BME280;28564;53.346;-6.554;2022-07-19T08:46:44;100183.25;;;29.55;32.53
40372;BME280;28564;53.346;-6.554;2022-07-19T08:49:11;100181.20;;;29.79;32.80
40372;BME280;28564;53.346;-6.554;2022-07-19T08:51:39;100186.13;;;29.67;32.66
40372;BME280;28564;53.346;-6.554;2022-07-19T08:54:08;100182.45;;;29.57;32.59
40372;BME280;28564;53.346;-6.554;2022-07-19T08:56:35;100184.02;;;29.80;32.44
40372;BME280;28564;53.346;-6.554;2022-07-19T08:59:03;100192.35;;;29.99;31.97
40372;BME280;28564;53.346;-6.554;2022-07-19T09:04:11;100188.62;;;30.30;31.29
40372;BME280;28564;53.346;-6.554;2022-07-19T09:06:40;100181.62;;;30.52;31.22
40372;BME280;28564;53.346;-6.554;2022-07-19T09:09:08;100183.27;;;30.74;31.13
40372;BME280;28564;53.346;-6.554;2022-07-19T09:11:36;100190.07;;;30.85;30.93
40372;BME280;28564;53.346;-6.554;2022-07-19T09:14:06;100192.55;;;30.88;30.79
40372;BME280;28564;53.346;-6.554;2022-07-19T09:17:08;100181.52;;;30.96;30.75
40372;BME280;28564;53.346;-6.554;2022-07-19T09:19:37;100176.08;;;31.06;30.64
40372;BME280;28564;53.346;-6.554;2022-07-19T09:22:06;100177.91;;;30.89;30.64
40372;BME280;28564;53.346;-6.554;2022-07-19T09:24:35;100175.57;;;31.28;30.59
40372;BME280;28564;53.346;-6.554;2022-07-19T09:27:06;100174.49;;;31.38;30.58
40372;BME280;28564;53.346;-6.554;2022-07-19T09:29:35;100172.19;;;31.50;30.65
40372;BME280;28564;53.346;-6.554;2022-07-19T09:32:08;100168.88;;;31.34;30.73
40372;BME280;28564;53.346;-6.554;2022-07-19T09:34:37;100167.01;;;31.37;30.64
40372;BME280;28564;53.346;-6.554;2022-07-19T09:37:09;100162.52;;;31.43;30.46
40372;BME280;28564;53.346;-6.554;2022-07-19T09:39:37;100184.55;;;31.60;30.40
40372;BME280;28564;53.346;-6.554;2022-07-19T09:42:05;100221.87;;;31.42;30.22
40372;BME280;28564;53.346;-6.554;2022-07-19T09:44:32;100277.34;;;31.43;30.39
40372;BME280;28564;53.346;-6.554;2022-07-19T09:46:59;100336.35;;;31.54;30.75
40372;BME280;28564;53.346;-6.554;2022-07-19T09:49:27;100337.14;;;31.62;30.87
40372;BME280;28564;53.346;-6.554;2022-07-19T09:51:55;100292.68;;;31.62;30.74
40372;BME280;28564;53.346;-6.554;2022-07-19T09:54:24;100254.41;;;31.49;30.77
40372;BME280;28564;53.346;-6.554;2022-07-19T09:56:52;100274.67;;;31.32;31.14
40372;BME280;28564;53.346;-6.554;2022-07-19T09:59:21;100290.44;;;31.32;31.61
40372;BME280;28564;53.346;-6.554;2022-07-19T10:01:52;100273.60;;;31.52;32.03
40372;BME280;28564;53.346;-6.554;2022-07-19T10:04:22;100262.69;;;31.86;31.44
40372;BME280;28564;53.346;-6.554;2022-07-19T10:06:50;100248.90;;;31.55;31.42
40372;BME280;28564;53.346;-6.554;2022-07-19T10:09:20;100231.78;;;31.39;31.02
40372;BME280;28564;53.346;-6.554;2022-07-19T10:11:47;100233.24;;;31.73;31.19
40372;BME280;28564;53.346;-6.554;2022-07-19T10:14:14;100240.75;;;31.56;31.51
40372;BME280;28564;53.346;-6.554;2022-07-19T10:16:55;100247.37;;;30.92;31.39
40372;BME280;28564;53.346;-6.554;2022-07-19T10:19:34;100245.90;;;31.02;31.55
40372;BME280;28564;53.346;-6.554;2022-07-19T10:22:06;100237.71;;;31.18;31.63
40372;BME280;28564;53.346;-6.554;2022-07-19T10:24:44;100234.25;;;31.08;31.85
40372;BME280;28564;53.346;-6.554;2022-07-19T10:27:13;100233.19;;;31.01;31.88
40372;BME280;28564;53.346;-6.554;2022-07-19T10:29:41;100236.99;;;30.95;31.69
40372;BME280;28564;53.346;-6.554;2022-07-19T10:32:11;100225.70;;;31.08;31.59
40372;BME280;28564;53.346;-6.554;2022-07-19T10:34:40;100227.79;;;30.87;31.39
40372;BME280;28564;53.346;-6.554;2022-07-19T10:37:08;100233.63;;;31.18;31.34
40372;BME280;28564;53.346;-6.554;2022-07-19T10:39:36;100213.01;;;31.34;31.04
40372;BME280;28564;53.346;-6.554;2022-07-19T10:42:11;100199.31;;;31.21;30.92
40372;BME280;28564;53.346;-6.554;2022-07-19T10:45:14;100191.95;;;31.38;30.66
40372;BME280;28564;53.346;-6.554;2022-07-19T10:48:15;100178.84;;;31.72;30.37
40372;BME280;28564;53.346;-6.554;2022-07-19T10:50:49;100167.35;;;31.86;30.02
40372;BME280;28564;53.346;-6.554;2022-07-19T10:54:22;100164.32;;;31.77;29.98
40372;BME280;28564;53.346;-6.554;2022-07-19T10:56:57;100179.65;;;31.78;29.82
40372;BME280;28564;53.346;-6.554;2022-07-19T10:59:43;100228.77;;;31.69;29.72
40372;BME280;28564;53.346;-6.554;2022-07-19T11:02:23;100273.03;;;31.61;30.08
40372;BME280;28564;53.346;-6.554;2022-07-19T11:04:50;100294.56;;;31.73;30.41
40372;BME280;28564;53.346;-6.554;2022-07-19T11:07:20;100298.09;;;32.16;30.48
40372;BME280;28564;53.346;-6.554;2022-07-19T11:09:56;100307.77;;;32.03;30.88
40372;BME280;28564;53.346;-6.554;2022-07-19T11:12:27;100298.66;;;32.71;30.96
40372;BME280;28564;53.346;-6.554;2022-07-19T11:14:55;100277.12;;;32.54;30.61
40372;BME280;28564;53.346;-6.554;2022-07-19T11:17:23;100271.30;;;32.80;30.32
40372;BME280;28564;53.346;-6.554;2022-07-19T11:20:10;100256.89;;;32.94;29.75
40372;BME280;28564;53.346;-6.554;2022-07-19T11:22:40;100222.61;;;32.87;29.94
40372;BME280;28564;53.346;-6.554;2022-07-19T11:25:08;100222.20;;;32.41;30.33
40372;BME280;28564;53.346;-6.554;2022-07-19T11:27:40;100256.34;;;32.12;30.54
40372;BME280;28564;53.346;-6.554;2022-07-19T11:30:09;100263.70;;;32.09;30.94
40372;BME280;28564;53.346;-6.554;2022-07-19T11:32:37;100256.17;;;31.57;31.35
40372;BME280;28564;53.346;-6.554;2022-07-19T11:35:06;100249.79;;;31.29;31.77
40372;BME280;28564;53.346;-6.554;2022-07-19T11:37:36;100243.55;;;31.16;31.81
40372;BME280;28564;53.346;-6.554;2022-07-19T11:40:04;100230.55;;;31.46;32.12
40372;BME280;28564;53.346;-6.554;2022-07-19T11:42:34;100223.91;;;31.45;32.01
40372;BME280;28564;53.346;-6.554;2022-07-19T11:45:12;100210.66;;;31.70;31.77
40372;BME280;28564;53.346;-6.554;2022-07-19T11:47:41;100190.81;;;31.98;31.71
40372;BME280;28564;53.346;-6.554;2022-07-19T11:50:10;100169.40;;;32.25;31.40
40372;BME280;28564;53.346;-6.554;2022-07-19T11:52:43;100165.82;;;32.46;31.35
40372;BME280;28564;53.346;-6.554;2022-07-19T11:55:11;100163.01;;;32.37;31.08
40372;BME280;28564;53.346;-6.554;2022-07-19T11:57:39;100148.35;;;32.26;31.34
40372;BME280;28564;53.346;-6.554;2022-07-19T12:00:07;100153.24;;;32.35;31.61
40372;BME280;28564;53.346;-6.554;2022-07-19T12:03:07;100151.09;;;31.44;31.87
40372;BME280;28564;53.346;-6.554;2022-07-19T12:05:37;100149.45;;;31.00;32.25
40372;BME280;28564;53.346;-6.554;2022-07-19T12:08:07;100140.97;;;30.82;32.68
40372;BME280;28564;53.346;-6.554;2022-07-19T12:10:38;100113.43;;;31.36;32.80
40372;BME280;28564;53.346;-6.554;2022-07-19T12:13:08;100106.58;;;31.18;32.86
40372;BME280;28564;53.346;-6.554;2022-07-19T12:15:46;100149.51;;;31.51;32.85
40372;BME280;28564;53.346;-6.554;2022-07-19T12:18:14;100177.12;;;31.61;32.85
40372;BME280;28564;53.346;-6.554;2022-07-19T12:20:41;100189.44;;;31.27;32.91
40372;BME280;28564;53.346;-6.554;2022-07-19T12:23:13;100181.81;;;31.56;32.87
40372;BME280;28564;53.346;-6.554;2022-07-19T12:25:41;100165.05;;;31.49;32.95
40372;BME280;28564;53.346;-6.554;2022-07-19T12:28:09;100171.22;;;31.71;32.94
40372;BME280;28564;53.346;-6.554;2022-07-19T12:30:37;100177.54;;;31.36;32.96
40372;BME280;28564;53.346;-6.554;2022-07-19T12:33:09;100190.90;;;31.58;33.26
40372;BME280;28564;53.346;-6.554;2022-07-19T12:35:46;100193.97;;;31.38;33.46
40372;BME280;28564;53.346;-6.554;2022-07-19T12:38:14;100181.24;;;31.80;33.41
40372;BME280;28564;53.346;-6.554;2022-07-19T12:40:48;100172.27;;;32.47;32.83
40372;BME280;28564;53.346;-6.554;2022-07-19T12:43:14;100170.06;;;32.76;32.06
40372;BME280;28564;53.346;-6.554;2022-07-19T12:45:43;100163.15;;;33.28;31.42
40372;BME280;28564;53.346;-6.554;2022-07-19T12:48:11;100166.08;;;33.49;30.90
40372;BME280;28564;53.346;-6.554;2022-07-19T12:50:41;100165.92;;;33.47;30.67